Dades meteomassalio
Diari Summary for Nil La, TWC- Units:  English    Metric   Both
« Previous Day
Next Day »
Diari Semanal Mensual Anual Personalitzat
  Maxima: Minima: Mijana:
Temperatura: TemperatureC °F 3.9 °F 6.8 °F
Rosada: DewpointC °F 1.6 °F 4.5 °F
Humitat: Humidity % 79 % 85 %
Velocitat del vent: WindSpeedKMH mph 0.0 mph 18 mph
Racha vent: WindSpeedGustKMH mph - -
Vent:- - WNW
Pressio: PressurehPa in 1013.8 in -
Pluja: 3.3 in    
Historical Graphs
 
 
Tabular Data for Nil La, TWC-
Time Temperature Dew Point Pressure Wind Wind Speed Wind Gust Humidity Rainfall Rate (Hourly) solar Conditions
TemperatureC °F DewpointC °F PressurehPa in Calm     Humidity % HourlyPrecipMM in SolarRadiationWatts/m^2 W/m2 Conditions
09:54 3.9 °F 2.7 °F 1013.8 in NW 14.5 mph 8.7 mph 92 % 0.5 in 14.00 W/m2 BKN
09:59 3.9 °F 2.7 °F 1013.8 in NW 16.7 mph 12.6 mph 92 % 0.5 in 14.00 W/m2 BKN
10:04 3.9 °F 2.8 °F 1013.8 in WNW 11.1 mph 10.0 mph 93 % 0.5 in 18.00 W/m2 BKN
10:09 3.9 °F 2.8 °F 1013.9 in NW 16.7 mph 12.9 mph 93 % 0.5 in 25.00 W/m2 BKN
10:14 3.9 °F 2.8 °F 1013.9 in NW 18.5 mph 11.6 mph 93 % 0.3 in 23.00 W/m2 BKN
10:19 3.9 °F 2.7 °F 1014.1 in NW 18.5 mph 9.8 mph 92 % 0.3 in 21.00 W/m2 BKN
10:24 3.9 °F 2.7 °F 1014.0 in NW 18.5 mph 12.7 mph 92 % 0.3 in 30.00 W/m2 BKN
10:29 3.9 °F 2.8 °F 1014.1 in NW 16.7 mph 10.1 mph 93 % 0.3 in 51.00 W/m2 BKN
10:34 4.4 °F 3.4 °F 1014.2 in NNW 19.3 mph 15.8 mph 93 % 0.5 in 39.00 W/m2 RA
10:39 4.4 °F 3.4 °F 1014.3 in NW 16.7 mph 11.6 mph 93 % 0.5 in 33.00 W/m2 BKN
10:44 4.4 °F 3.3 °F 1014.3 in NW 11.1 mph 3.1 mph 92 % 0.3 in 51.00 W/m2 BKN
10:49 4.4 °F 3.3 °F 1014.3 in NW 20.9 mph 14.6 mph 92 % 0.3 in 49.00 W/m2 SCT
10:54 4.4 °F 3.4 °F 1014.5 in NW 19.3 mph 9.8 mph 93 % 0.3 in 46.00 W/m2 SCT
10:59 4.4 °F 3.4 °F 1014.5 in NW 18.5 mph 9.0 mph 93 % 0.3 in 76.00 W/m2 SCT
11:04 4.4 °F 3.4 °F 1014.6 in NW 14.8 mph 9.7 mph 93 % 0.3 in 69.00 W/m2 SCT
11:09 5.0 °F 3.8 °F 1014.7 in NW 13.0 mph 9.5 mph 92 % 0.3 in 60.00 W/m2 SCT
11:14 5.0 °F 3.8 °F 1014.7 in NW 22.2 mph 12.1 mph 92 % 0.3 in 70.00 W/m2 SCT
11:19 5.0 °F 3.8 °F 1014.8 in NW 11.1 mph 9.3 mph 92 % 0.3 in 76.00 W/m2 SCT
11:24 5.0 °F 3.8 °F 1014.8 in WNW 16.7 mph 9.2 mph 92 % 0.3 in 70.00 W/m2 FEW
11:29 5.0 °F 3.8 °F 1014.8 in WNW 9.3 mph 9.0 mph 92 % 0.3 in 79.00 W/m2 FEW
11:34 5.0 °F 3.8 °F 1014.7 in WNW 22.2 mph 10.9 mph 92 % 0.0 in 70.00 W/m2 FEW
11:39 5.0 °F 3.8 °F 1014.8 in NW 13.0 mph 9.8 mph 92 % 0.0 in 160.00 W/m2 FEW
11:44 5.6 °F 4.3 °F 1014.8 in WNW 14.8 mph 7.4 mph 92 % 0.0 in 162.00 W/m2 CLR
11:49 5.6 °F 4.3 °F 1014.8 in WNW 16.7 mph 8.4 mph 92 % 0.0 in 165.00 W/m2 CLR
11:54 5.6 °F 4.3 °F 1014.8 in NNW 16.7 mph 13.4 mph 92 % 0.0 in 156.00 W/m2 CLR
11:59 6.1 °F 4.9 °F 1014.8 in NW 20.4 mph 12.1 mph 92 % 0.0 in 105.00 W/m2 CLR
12:04 6.1 °F 4.9 °F 1014.9 in NW 20.4 mph 8.0 mph 92 % 0.0 in 83.00 W/m2 CLR
12:09 6.1 °F 4.8 °F 1014.8 in North 16.1 mph 8.4 mph 91 % 0.0 in 86.00 W/m2 CLR
12:14 6.1 °F 4.8 °F 1014.8 in NW 6.4 mph 6.3 mph 91 % 0.0 in 79.00 W/m2 FEW
12:19 6.1 °F 4.8 °F 1014.6 in WNW 7.4 mph 6.8 mph 91 % 0.0 in 97.00 W/m2 CLR
12:24 6.1 °F 4.8 °F 1014.5 in NNW 18.5 mph 10.0 mph 91 % 0.0 in 83.00 W/m2 CLR
12:29 6.1 °F 4.8 °F 1014.5 in Calm     91 % 0.0 in 84.00 W/m2 FEW
12:34 6.1 °F 4.8 °F 1014.4 in NW 13.0 mph 12.4 mph 91 % 0.0 in 98.00 W/m2 FEW
12:39 6.1 °F 4.8 °F 1014.4 in North 11.3 mph 9.2 mph 91 % 0.0 in 72.00 W/m2 CLR
12:44 6.1 °F 4.8 °F 1014.3 in NNW 16.7 mph 11.1 mph 91 % 0.0 in 67.00 W/m2 CLR
12:49 6.7 °F 5.3 °F 1014.2 in NNW 11.1 mph 8.0 mph 91 % 0.0 in 104.00 W/m2 FEW
12:54 6.7 °F 5.3 °F 1014.3 in North 18.5 mph 15.6 mph 91 % 0.0 in 79.00 W/m2 CLR
12:59 6.7 °F 5.2 °F 1014.3 in NW 22.2 mph 17.7 mph 90 % 0.0 in 118.00 W/m2 CLR
13:04 6.7 °F 5.2 °F 1014.3 in North 35.2 mph 26.9 mph 90 % 0.0 in 165.00 W/m2 CLR
13:09 6.7 °F 5.0 °F 1014.3 in North 25.9 mph 22.2 mph 89 % 0.0 in 204.00 W/m2 CLR
13:14 6.7 °F 5.0 °F 1014.3 in North 22.2 mph 10.9 mph 89 % 0.0 in 183.00 W/m2 CLR
13:19 7.2 °F 5.6 °F 1014.3 in North 18.5 mph 11.7 mph 89 % 0.0 in 120.00 W/m2 CLR
13:24 7.2 °F 5.6 °F 1014.2 in North 25.9 mph 16.7 mph 89 % 0.0 in 151.00 W/m2 CLR
13:29 7.2 °F 5.6 °F 1014.2 in NNE 16.7 mph 6.9 mph 89 % 0.0 in 130.00 W/m2 CLR
13:34 7.2 °F 5.6 °F 1014.3 in NNE 16.7 mph 12.7 mph 89 % 0.0 in 220.00 W/m2 CLR
13:39 7.2 °F 5.6 °F 1014.4 in NNE 14.8 mph 6.1 mph 89 % 0.0 in 172.00 W/m2 CLR
13:44 7.2 °F 5.6 °F 1014.3 in North 18.5 mph 10.6 mph 89 % 0.0 in 137.00 W/m2 CLR
13:49 7.2 °F 5.6 °F 1014.4 in NNW 13.0 mph 10.6 mph 89 % 0.0 in 84.00 W/m2 CLR
13:54 7.2 °F 5.6 °F 1014.3 in NNW 17.7 mph 15.9 mph 89 % 0.0 in 142.00 W/m2 CLR
13:59 7.2 °F 5.4 °F 1014.3 in North 20.4 mph 14.2 mph 88 % 0.0 in 171.00 W/m2 CLR
14:04 7.2 °F 5.4 °F 1014.3 in North 20.4 mph 17.5 mph 88 % 0.0 in 199.00 W/m2 CLR
14:09 7.8 °F 5.9 °F 1014.3 in NNW 18.5 mph 10.8 mph 88 % 0.0 in 174.00 W/m2 CLR
14:14 7.8 °F 5.7 °F 1014.2 in NNE 14.8 mph 13.5 mph 87 % 0.0 in 165.00 W/m2 CLR
14:19 8.3 °F 6.3 °F 1014.2 in NNW 18.5 mph 12.2 mph 87 % 0.0 in 260.00 W/m2 CLR
14:24 8.3 °F 6.3 °F 1014.2 in North 11.1 mph 5.3 mph 87 % 0.0 in 160.00 W/m2 CLR
14:29 8.3 °F 6.1 °F 1014.2 in North 11.1 mph 3.2 mph 86 % 0.0 in 137.00 W/m2 CLR
14:34 8.3 °F 6.1 °F 1014.1 in North 20.4 mph 16.9 mph 86 % 0.0 in 139.00 W/m2 CLR
14:39 8.3 °F 6.1 °F 1014.1 in North 19.3 mph 11.6 mph 86 % 0.0 in 146.00 W/m2 CLR
14:44 8.3 °F 6.1 °F 1014.1 in North 18.5 mph 11.1 mph 86 % 0.0 in 144.00 W/m2 CLR
14:49 8.3 °F 5.9 °F 1014.2 in North 20.4 mph 12.7 mph 85 % 0.0 in 127.00 W/m2 CLR
14:54 8.3 °F 6.1 °F 1014.2 in NNE 20.4 mph 15.3 mph 86 % 0.0 in 137.00 W/m2 CLR
14:59 8.3 °F 6.1 °F 1014.2 in North 13.0 mph 9.7 mph 86 % 0.0 in 181.00 W/m2 CLR
15:04 8.9 °F 6.7 °F 1014.1 in NNE 7.4 mph   86 % 0.0 in 90.00 W/m2 CLR
15:09 8.3 °F 6.1 °F 1014.2 in North 9.3 mph 6.3 mph 86 % 0.0 in 142.00 W/m2 CLR
15:14 8.9 °F 6.7 °F 1014.2 in NNW 1.9 mph   86 % 0.0 in 125.00 W/m2 CLR
15:19 8.9 °F 6.7 °F 1014.1 in Calm     86 % 0.0 in 113.00 W/m2 CLR
15:24 8.9 °F 6.7 °F 1014.1 in Calm     86 % 0.0 in 118.00 W/m2 CLR
15:29 8.9 °F 6.7 °F 1014.1 in Calm     86 % 0.0 in 123.00 W/m2 CLR
15:34 8.9 °F 6.5 °F 1014.1 in NNW 16.7 mph 4.0 mph 85 % 0.0 in 91.00 W/m2 CLR
15:39 8.9 °F 6.5 °F 1014.1 in NNW 9.3 mph 6.0 mph 85 % 0.0 in 91.00 W/m2 CLR
15:44 8.9 °F 6.3 °F 1014.1 in NNW 14.8 mph 0.6 mph 84 % 0.0 in 93.00 W/m2 CLR
15:49 8.9 °F 6.2 °F 1014.1 in NNW 18.5 mph 12.7 mph 83 % 0.0 in 98.00 W/m2 CLR
15:54 9.4 °F 6.7 °F 1014.1 in NW 14.8 mph 8.8 mph 83 % 0.0 in 77.00 W/m2 CLR
15:59 9.4 °F 6.5 °F 1014.1 in NW 11.3 mph 8.0 mph 82 % 0.0 in 86.00 W/m2 FEW
16:03 9.4 °F 6.5 °F 1014.1 in NNW 9.3 mph 6.4 mph 82 % 0.0 in 97.00 W/m2 FEW
16:09 9.4 °F 6.5 °F 1014.1 in NNW 16.7 mph 9.7 mph 82 % 0.0 in 102.00 W/m2 CLR
16:14 9.4 °F 6.3 °F 1014.2 in NW 18.5 mph 12.1 mph 81 % 0.0 in 121.00 W/m2 CLR
16:19 9.4 °F 6.3 °F 1014.2 in NNW 19.3 mph 16.6 mph 81 % 0.0 in 97.00 W/m2 CLR
16:24 9.4 °F 6.3 °F 1014.4 in NW 18.5 mph 13.7 mph 81 % 0.0 in 81.00 W/m2 CLR
16:29 9.4 °F 6.2 °F 1014.4 in NW 18.5 mph 11.1 mph 80 % 0.0 in 62.00 W/m2 FEW
16:34 9.4 °F 6.2 °F 1014.4 in WNW 16.7 mph 13.0 mph 80 % 0.0 in 60.00 W/m2 FEW
16:39 9.4 °F 6.0 °F 1014.3 in NW 18.5 mph 17.2 mph 79 % 0.0 in 60.00 W/m2 SCT
16:44 9.4 °F 6.0 °F 1014.3 in NNW 27.4 mph 21.2 mph 79 % 0.0 in 63.00 W/m2 SCT
16:49 9.4 °F 6.0 °F 1014.3 in NW 22.2 mph 19.1 mph 79 % 0.0 in 53.00 W/m2 SCT
16:54 8.9 °F 5.4 °F 1014.4 in NW 20.4 mph 16.9 mph 79 % 0.0 in 44.00 W/m2 SCT
16:59 8.9 °F 5.6 °F 1014.5 in NW 25.9 mph 17.2 mph 80 % 0.0 in 42.00 W/m2 SCT
17:04 8.9 °F 5.6 °F 1014.6 in NW 18.5 mph 15.1 mph 80 % 0.0 in 47.00 W/m2 SCT
17:09 8.9 °F 5.6 °F 1014.6 in NW 31.5 mph 26.5 mph 80 % 0.0 in 44.00 W/m2 SCT
17:14 8.9 °F 5.6 °F 1014.6 in NW 29.6 mph 19.3 mph 80 % 0.0 in 33.00 W/m2 BKN
17:19 8.9 °F 5.6 °F 1014.7 in NNW 22.2 mph 20.8 mph 80 % 0.0 in 21.00 W/m2 BKN
17:24 8.9 °F 5.6 °F 1014.7 in NNW 18.5 mph 13.7 mph 80 % 0.0 in 18.00 W/m2 BKN
17:29 8.9 °F 5.6 °F 1014.8 in NW 24.1 mph 17.7 mph 80 % 0.0 in 19.00 W/m2 BKN
17:34 8.9 °F 5.6 °F 1014.9 in NW 22.5 mph 15.9 mph 80 % 0.0 in 19.00 W/m2 BKN
17:39 8.9 °F 5.6 °F 1014.8 in NW 22.2 mph 15.0 mph 80 % 0.0 in 16.00 W/m2 BKN
17:44 8.9 °F 5.6 °F 1014.9 in NW 27.8 mph 22.7 mph 80 % 0.0 in 11.00 W/m2 BKN
17:49 8.9 °F 5.6 °F 1015.0 in NW 27.8 mph 17.2 mph 80 % 0.0 in 7.00 W/m2 BKN
17:54 8.3 °F 5.1 °F 1015.0 in NW 25.9 mph 18.2 mph 80 % 0.0 in 5.00 W/m2 OVC
17:59 8.3 °F 5.1 °F 1015.0 in NW 22.2 mph 18.3 mph 80 % 0.0 in 0.00 W/m2 OVC
18:04 8.3 °F 5.1 °F 1015.1 in NW 16.7 mph 13.5 mph 80 % 0.0 in 0.00 W/m2 OVC
18:09 8.3 °F 5.1 °F 1015.0 in NW 18.5 mph 12.9 mph 80 % 0.0 in 0.00 W/m2 OVC
18:14 8.3 °F 5.1 °F 1015.0 in WNW 18.5 mph 18.3 mph 80 % 0.0 in 0.00 W/m2 CLR
18:19 7.8 °F 4.6 °F 1015.0 in NW 20.4 mph 16.1 mph 80 % 0.0 in 0.00 W/m2 CLR
18:24 7.8 °F 4.6 °F 1015.1 in NW 18.5 mph 15.6 mph 80 % 0.0 in 0.00 W/m2 CLR
18:29 7.8 °F 4.6 °F 1015.1 in NNW 29.6 mph 23.5 mph 80 % 0.0 in 0.00 W/m2 CLR
18:34 7.8 °F 4.7 °F 1015.2 in NW 35.2 mph 27.4 mph 81 % 0.0 in 0.00 W/m2 CLR
18:39 7.8 °F 4.7 °F 1015.1 in NNW 38.9 mph 27.5 mph 81 % 0.0 in 0.00 W/m2 CLR
18:44 7.8 °F 4.7 °F 1015.3 in NNW 38.9 mph 23.8 mph 81 % 0.0 in 0.00 W/m2 CLR
18:49 7.8 °F 4.7 °F 1015.4 in NNW 31.5 mph 25.6 mph 81 % 0.0 in 0.00 W/m2 CLR
18:54 7.8 °F 4.7 °F 1015.5 in NNW 31.5 mph 18.8 mph 81 % 0.0 in 0.00 W/m2 CLR
18:59 7.2 °F 4.2 °F 1015.6 in NNW 37.0 mph 26.9 mph 81 % 0.0 in 0.00 W/m2 CLR
19:04 7.2 °F 4.2 °F 1015.7 in NW 35.2 mph 21.9 mph 81 % 0.0 in 0.00 W/m2 CLR
19:09 7.2 °F 4.2 °F 1015.7 in NW 29.6 mph 19.5 mph 81 % 0.0 in 0.00 W/m2 CLR
19:14 7.2 °F 4.3 °F 1015.8 in NNW 33.3 mph 25.7 mph 82 % 0.0 in 0.00 W/m2 CLR
19:19 7.2 °F 4.2 °F 1015.9 in NW 27.4 mph 18.2 mph 81 % 0.0 in 0.00 W/m2 CLR
19:24 7.2 °F 4.3 °F 1015.9 in NW 31.5 mph 26.9 mph 82 % 0.0 in 0.00 W/m2 CLR
19:29 7.2 °F 4.3 °F 1016.1 in NW 35.2 mph 18.8 mph 82 % 0.0 in 0.00 W/m2 CLR
19:34 6.7 °F 3.8 °F 1016.2 in NW 31.5 mph 15.9 mph 82 % 0.0 in 0.00 W/m2 CLR
19:39 6.7 °F 3.6 °F 1016.2 in NW 20.4 mph 14.3 mph 81 % 0.0 in 0.00 W/m2 CLR
19:44 6.7 °F 3.6 °F 1016.2 in WNW 18.5 mph 16.7 mph 81 % 0.0 in 0.00 W/m2 CLR
19:49 6.7 °F 3.6 °F 1016.3 in NW 16.7 mph 13.2 mph 81 % 0.0 in 0.00 W/m2 CLR
19:54 6.7 °F 3.6 °F 1016.4 in West 22.5 mph 15.1 mph 81 % 0.0 in 0.00 W/m2 CLR
19:59 6.7 °F 3.6 °F 1016.4 in NW 16.7 mph 15.6 mph 81 % 0.0 in 0.00 W/m2 CLR
20:04 6.7 °F 3.6 °F 1016.5 in NW 25.9 mph 18.7 mph 81 % 0.0 in 0.00 W/m2 CLR
20:09 6.7 °F 3.6 °F 1016.6 in NW 18.5 mph 10.9 mph 81 % 0.0 in 0.00 W/m2 CLR
20:14 6.1 °F 3.1 °F 1016.6 in NW 18.5 mph 16.1 mph 81 % 0.0 in 0.00 W/m2 CLR
20:19 6.1 °F 3.1 °F 1016.6 in NW 25.9 mph 18.2 mph 81 % 0.0 in 0.00 W/m2 CLR
20:24 6.1 °F 3.1 °F 1016.7 in WNW 14.8 mph 13.2 mph 81 % 0.0 in 0.00 W/m2 CLR
20:29 6.1 °F 3.1 °F 1016.7 in WNW 25.9 mph 11.7 mph 81 % 0.0 in 0.00 W/m2 CLR
20:34 6.1 °F 3.1 °F 1016.7 in WNW 29.6 mph 15.6 mph 81 % 0.0 in 0.00 W/m2 CLR
20:39 6.1 °F 3.1 °F 1016.8 in WNW 18.5 mph 13.8 mph 81 % 0.0 in 0.00 W/m2 CLR
20:44 6.1 °F 3.1 °F 1016.8 in WNW 9.7 mph 3.9 mph 81 % 0.0 in 0.00 W/m2 CLR
20:49 6.1 °F 3.1 °F 1016.9 in NW 18.5 mph 10.5 mph 81 % 0.0 in 0.00 W/m2 CLR
20:54 6.1 °F 3.3 °F 1017.1 in NW 16.7 mph 8.5 mph 82 % 0.0 in 0.00 W/m2 CLR
20:59 6.1 °F 3.3 °F 1017.1 in NW 14.8 mph 10.3 mph 82 % 0.0 in 0.00 W/m2 CLR
21:04 5.6 °F 2.7 °F 1017.2 in WNW 13.0 mph 4.8 mph 82 % 0.0 in 0.00 W/m2 CLR
21:09 5.6 °F 2.7 °F 1017.2 in South 9.3 mph   82 % 0.0 in 0.00 W/m2 CLR
21:14 5.6 °F 2.7 °F 1017.3 in WSW 9.3 mph 0.8 mph 82 % 0.0 in 0.00 W/m2 CLR
21:19 5.6 °F 2.7 °F 1017.4 in NW 11.3 mph 7.9 mph 82 % 0.0 in 0.00 W/m2 CLR
21:24 5.6 °F 2.7 °F 1017.4 in West 7.4 mph 6.9 mph 82 % 0.0 in 0.00 W/m2 CLR
21:29 5.6 °F 2.7 °F 1017.5 in West 13.0 mph 6.4 mph 82 % 0.0 in 0.00 W/m2 CLR
21:34 5.6 °F 2.7 °F 1017.5 in NW 16.1 mph 8.5 mph 82 % 0.0 in 0.00 W/m2 CLR
21:39 5.0 °F 2.2 °F 1017.5 in WNW 9.7 mph 8.2 mph 82 % 0.0 in 0.00 W/m2 CLR
21:44 4.4 °F 1.6 °F 1017.5 in NW 18.5 mph 12.6 mph 82 % 0.0 in 0.00 W/m2 CLR
21:49 4.4 °F 1.6 °F 1017.4 in NW 20.4 mph 15.9 mph 82 % 0.0 in 0.00 W/m2 CLR
21:54 5.0 °F 2.2 °F 1017.5 in WNW 16.7 mph 12.6 mph 82 % 0.0 in 0.00 W/m2 CLR
21:57 5.0 °F 2.2 °F 1017.6 in WNW 14.8 mph 12.9 mph 82 % 0.0 in 0.00 W/m2 CLR
22:04 5.6 °F 2.7 °F 1017.6 in NW 13.0 mph 9.3 mph 82 % 0.0 in 0.00 W/m2 CLR
22:09 5.6 °F 2.9 °F 1017.6 in West 11.1 mph 7.1 mph 83 % 0.0 in 0.00 W/m2 CLR
22:14 5.6 °F 2.9 °F 1017.7 in WSW 16.7 mph 12.6 mph 83 % 0.0 in 0.00 W/m2 CLR
22:19 5.6 °F 2.9 °F 1017.7 in West 11.1 mph 7.9 mph 83 % 0.0 in 0.00 W/m2 CLR
22:24 5.6 °F 2.7 °F 1017.8 in SW 7.4 mph 0.3 mph 82 % 0.0 in 0.00 W/m2 CLR
22:29 5.6 °F 2.9 °F 1017.9 in Calm     83 % 0.0 in 0.00 W/m2 CLR
22:34 5.6 °F 2.9 °F 1017.9 in WSW 8.0 mph 5.1 mph 83 % 0.0 in 0.00 W/m2 CLR
22:39 5.6 °F 2.9 °F 1018.0 in West 6.4 mph 1.6 mph 83 % 0.0 in 0.00 W/m2 CLR
22:44 5.6 °F 3.1 °F 1018.1 in WSW 9.3 mph 1.9 mph 84 % 0.0 in 0.00 W/m2 CLR
22:49 5.0 °F 2.5 °F 1018.2 in WNW 14.8 mph 3.1 mph 84 % 0.0 in 0.00 W/m2 CLR
Lo Temps de Massalio
Compliments of Weather Underground - 768 kb